createdAt,value
2017-11-08T00:00:11.787Z,60.35
2017-11-08T00:01:17.240Z,59.35
2017-11-08T00:02:22.779Z,60.58
2017-11-08T00:03:28.457Z,70.05
2017-11-08T00:04:34.416Z,65.07
2017-11-08T00:05:39.951Z,64.27
2017-11-08T00:06:45.429Z,57.80
2017-11-08T00:07:50.972Z,62.35
2017-11-08T00:08:56.784Z,60.85
2017-11-08T00:10:03.457Z,64.18
2017-11-08T00:11:08.922Z,64.03
2017-11-08T00:12:14.362Z,67.72
2017-11-08T00:13:19.756Z,57.42
2017-11-08T00:14:25.618Z,65.72
2017-11-08T00:15:31.100Z,57.10
2017-11-08T00:16:38.484Z,56.72
2017-11-08T00:17:44.500Z,59.72
2017-11-08T00:18:49.999Z,71.28
2017-11-08T00:19:58.661Z,56.45
2017-11-08T00:21:04.214Z,57.25
2017-11-08T00:22:22.837Z,57.95
2017-11-08T00:23:28.366Z,72.10
2017-11-08T00:24:34.037Z,64.37
2017-11-08T00:25:39.451Z,60.50
2017-11-08T00:26:44.855Z,61.03
2017-11-08T00:27:50.656Z,57.13
2017-11-08T00:28:56.182Z,57.70
2017-11-08T00:30:01.915Z,65.45
2017-11-08T00:31:07.434Z,64.85
2017-11-08T00:32:12.932Z,66.70
2017-11-08T00:33:18.683Z,63.60
2017-11-08T00:34:24.187Z,60.03
2017-11-08T00:35:29.806Z,66.55
2017-11-08T00:36:35.360Z,60.17
2017-11-08T00:37:40.833Z,62.45
2017-11-08T00:38:46.341Z,63.83
2017-11-08T00:39:52.005Z,68.50
2017-11-08T00:40:57.700Z,61.53
2017-11-08T00:42:03.131Z,59.78
2017-11-08T00:43:08.527Z,62.78
2017-11-08T00:44:13.956Z,60.35
2017-11-08T00:45:19.448Z,64.85
2017-11-08T00:46:24.972Z,76.57
2017-11-08T00:47:32.277Z,69.93
2017-11-08T00:48:37.730Z,62.80
2017-11-08T00:49:43.161Z,65.00
2017-11-08T00:50:48.561Z,67.30
2017-11-08T00:51:54.066Z,76.90
2017-11-08T00:53:02.230Z,72.45
2017-11-08T00:54:07.708Z,72.53
2017-11-08T00:55:13.134Z,72.93
2017-11-08T00:56:18.573Z,68.22
2017-11-08T00:57:29.273Z,69.43
2017-11-08T00:58:34.701Z,66.37
2017-11-08T00:59:40.426Z,69.18
2017-11-08T01:00:45.982Z,69.20
2017-11-08T01:01:51.675Z,70.97
2017-11-08T01:02:57.190Z,71.62
2017-11-08T01:04:02.587Z,73.55
2017-11-08T01:05:07.990Z,67.93
2017-11-08T01:06:13.554Z,66.97
2017-11-08T01:07:19.132Z,66.60
2017-11-08T01:08:24.571Z,71.25
2017-11-08T01:09:30.050Z,66.35
2017-11-08T01:10:35.458Z,68.65
2017-11-08T01:11:41.058Z,72.35
2017-11-08T01:12:46.519Z,61.97
2017-11-08T01:13:51.991Z,66.50
2017-11-08T01:14:57.445Z,68.07
2017-11-08T01:16:02.887Z,70.53
2017-11-08T01:17:08.412Z,64.68
2017-11-08T01:18:13.839Z,71.55
2017-11-08T01:19:19.256Z,69.60
2017-11-08T01:20:24.710Z,70.45
2017-11-08T01:21:30.140Z,66.00
2017-11-08T01:22:35.667Z,74.33
2017-11-08T01:23:41.111Z,67.22
2017-11-08T01:24:46.537Z,71.60
2017-11-08T01:25:52.001Z,64.57
2017-11-08T01:26:57.450Z,71.22
2017-11-08T01:28:03.216Z,61.40
2017-11-08T01:29:08.654Z,67.10
2017-11-08T01:30:14.324Z,70.72
2017-11-08T01:31:20.145Z,75.43
2017-11-08T01:32:25.568Z,72.27
2017-11-08T01:33:33.142Z,66.53
2017-11-08T01:34:38.860Z,61.97
2017-11-08T01:35:44.309Z,70.32
2017-11-08T01:36:54.999Z,72.78
2017-11-08T01:38:00.419Z,69.93
2017-11-08T01:39:05.842Z,68.10
2017-11-08T01:40:18.337Z,71.73
2017-11-08T01:41:25.626Z,74.85
2017-11-08T01:42:33.008Z,70.75
2017-11-08T01:43:38.407Z,71.47
2017-11-08T01:44:50.659Z,65.03
2017-11-08T01:45:56.524Z,65.20
2017-11-08T01:47:01.964Z,65.03
2017-11-08T01:48:09.388Z,64.72
2017-11-08T01:49:16.807Z,66.97
2017-11-08T01:50:28.169Z,70.10
2017-11-08T01:51:40.676Z,65.68
2017-11-08T01:52:46.113Z,64.07
2017-11-08T01:53:51.506Z,67.87
2017-11-08T01:54:56.961Z,65.82
2017-11-08T01:56:02.501Z,67.00
2017-11-08T01:57:07.983Z,70.15
2017-11-08T01:58:13.945Z,71.75
2017-11-08T01:59:19.634Z,65.87
2017-11-08T02:00:25.448Z,68.72
2017-11-08T02:01:31.214Z,66.32
2017-11-08T02:02:36.991Z,66.43
2017-11-08T02:03:42.641Z,68.32
2017-11-08T02:04:48.635Z,65.12
2017-11-08T02:05:54.137Z,69.05
2017-11-08T02:06:59.552Z,70.25
2017-11-08T02:08:04.980Z,61.73
2017-11-08T02:09:10.733Z,59.80
2017-11-08T02:10:16.333Z,60.80
2017-11-08T02:11:21.967Z,68.62
2017-11-08T02:12:27.420Z,63.17
2017-11-08T02:13:32.878Z,71.95
2017-11-08T02:14:38.427Z,59.85
2017-11-08T02:15:52.722Z,70.32
2017-11-08T02:16:58.216Z,66.12
2017-11-08T02:18:30.455Z,66.25
2017-11-08T02:19:35.963Z,67.93
2017-11-08T02:20:41.369Z,67.40
2017-11-08T02:21:46.828Z,66.90
2017-11-08T02:22:52.846Z,65.97
2017-11-08T02:23:58.358Z,69.75
2017-11-08T02:25:03.888Z,69.43
2017-11-08T02:26:09.633Z,70.82
2017-11-08T02:27:18.745Z,69.32
2017-11-08T02:28:24.464Z,70.78
2017-11-08T02:29:30.429Z,64.90
2017-11-08T02:30:36.081Z,63.45
2017-11-08T02:31:41.859Z,67.45
2017-11-08T02:32:48.338Z,60.55
2017-11-08T02:33:54.601Z,60.50
2017-11-08T02:35:00.540Z,69.53
2017-11-08T02:36:06.074Z,64.57
2017-11-08T02:37:11.535Z,72.57
2017-11-08T02:38:17.558Z,65.10
2017-11-08T02:39:23.492Z,63.15
2017-11-08T02:40:29.370Z,65.12
2017-11-08T02:41:35.540Z,60.88
2017-11-08T02:42:41.168Z,66.28
2017-11-08T02:43:47.028Z,64.67
2017-11-08T02:44:53.080Z,62.53
2017-11-08T02:45:58.638Z,64.60
2017-11-08T02:47:04.158Z,66.15
2017-11-08T02:48:09.751Z,63.28
2017-11-08T02:49:16.084Z,61.53
2017-11-08T02:50:21.655Z,67.20
2017-11-08T02:51:27.135Z,60.25
2017-11-08T02:52:32.929Z,62.20
2017-11-08T02:53:38.416Z,59.28
2017-11-08T02:54:44.118Z,63.35
2017-11-08T02:55:50.870Z,58.75
2017-11-08T02:56:57.139Z,59.78
2017-11-08T02:58:03.261Z,58.78
2017-11-08T02:59:08.789Z,59.40
2017-11-08T03:00:14.880Z,63.30
2017-11-08T03:01:20.299Z,59.03
2017-11-08T03:02:30.572Z,55.47
2017-11-08T03:03:41.191Z,56.90
2017-11-08T03:04:48.251Z,57.60
2017-11-08T03:05:54.223Z,55.70
2017-11-08T03:06:59.695Z,56.58
2017-11-08T03:08:05.200Z,56.03
2017-11-08T03:09:10.626Z,58.22
2017-11-08T03:10:16.108Z,62.15
2017-11-08T03:11:21.615Z,56.35
2017-11-08T03:12:27.044Z,56.55
2017-11-08T03:13:32.457Z,59.95
2017-11-08T03:14:37.957Z,53.58
2017-11-08T03:15:43.683Z,53.92
2017-11-08T03:16:49.141Z,53.90
2017-11-08T03:17:55.671Z,55.38
2017-11-08T03:19:01.517Z,52.57
2017-11-08T03:20:07.333Z,53.65
2017-11-08T03:21:13.628Z,54.97
2017-11-08T03:22:19.580Z,55.45
2017-11-08T03:23:25.433Z,50.65
2017-11-08T03:24:31.333Z,52.28
2017-11-08T03:25:36.791Z,46.92
2017-11-08T03:26:42.451Z,52.20
2017-11-08T03:27:47.861Z,53.37
2017-11-08T03:28:54.203Z,54.45
2017-11-08T03:29:59.632Z,57.42
2017-11-08T03:31:05.879Z,55.92
2017-11-08T03:32:11.327Z,60.90
2017-11-08T03:33:16.836Z,54.83
2017-11-08T03:34:22.393Z,57.92
2017-11-08T03:35:27.902Z,54.28
2017-11-08T03:36:33.867Z,59.70
2017-11-08T03:37:40.832Z,56.58
2017-11-08T03:38:46.525Z,59.97
2017-11-08T03:39:52.379Z,55.90
2017-11-08T03:40:57.858Z,52.15
2017-11-08T03:42:03.461Z,51.80
2017-11-08T03:43:09.299Z,58.78
2017-11-08T03:44:14.722Z,56.00
2017-11-08T03:45:20.160Z,50.15
2017-11-08T03:46:25.562Z,55.65
2017-11-08T03:47:31.036Z,51.47
2017-11-08T03:48:36.821Z,48.08
2017-11-08T03:49:42.447Z,47.15
2017-11-08T03:50:47.852Z,45.33
2017-11-08T03:51:53.267Z,51.53
2017-11-08T03:52:58.847Z,50.25
2017-11-08T03:54:04.689Z,47.53
2017-11-08T03:55:10.159Z,45.50
2017-11-08T03:56:15.552Z,48.85
2017-11-08T03:57:21.030Z,48.92
2017-11-08T03:58:26.807Z,45.45
2017-11-08T03:59:32.304Z,50.38
2017-11-08T04:00:37.855Z,48.70
2017-11-08T04:01:43.350Z,52.60
2017-11-08T04:02:48.795Z,50.97
2017-11-08T04:03:54.296Z,53.80
2017-11-08T04:05:00.009Z,51.25
2017-11-08T04:06:05.450Z,47.30
2017-11-08T04:07:10.981Z,55.17
2017-11-08T04:08:16.424Z,50.12
2017-11-08T04:09:22.068Z,54.08
2017-11-08T04:10:27.507Z,53.42
2017-11-08T04:11:32.917Z,52.28
2017-11-08T04:12:38.403Z,55.65
2017-11-08T04:13:43.912Z,49.28
2017-11-08T04:14:49.447Z,62.97
2017-11-08T04:15:54.928Z,58.05
2017-11-08T04:17:00.340Z,58.05
2017-11-08T04:18:05.829Z,55.70
2017-11-08T04:19:11.261Z,69.22
2017-11-08T04:20:16.785Z,67.65
2017-11-08T04:21:22.271Z,73.60
2017-11-08T04:22:27.710Z,70.65
2017-11-08T04:23:33.472Z,67.70
2017-11-08T04:24:38.885Z,74.53
2017-11-08T04:25:44.385Z,67.70
2017-11-08T04:26:49.778Z,65.32
2017-11-08T04:27:55.211Z,72.15
2017-11-08T04:29:00.619Z,73.12
2017-11-08T04:30:06.659Z,72.93
2017-11-08T04:31:12.471Z,69.03
2017-11-08T04:32:17.913Z,69.55
2017-11-08T04:33:23.336Z,77.20
2017-11-08T04:34:28.765Z,68.50
2017-11-08T04:35:34.222Z,70.00
2017-11-08T04:36:39.659Z,71.87
2017-11-08T04:37:45.567Z,74.85
2017-11-08T04:38:51.019Z,75.05
2017-11-08T04:39:56.461Z,73.72
2017-11-08T04:41:02.042Z,73.95
2017-11-08T04:42:07.556Z,68.68
2017-11-08T04:43:12.976Z,63.70
2017-11-08T04:44:18.396Z,69.97
2017-11-08T04:45:23.962Z,64.80
2017-11-08T04:46:30.016Z,79.53
2017-11-08T04:47:35.481Z,73.07
2017-11-08T04:48:41.047Z,71.57
2017-11-08T04:49:46.470Z,77.22
2017-11-08T04:50:52.139Z,80.75
2017-11-08T04:51:57.593Z,67.53
2017-11-08T04:53:03.053Z,69.20
2017-11-08T04:54:08.521Z,78.62
2017-11-08T04:55:14.029Z,71.22
2017-11-08T04:56:19.513Z,71.65
2017-11-08T04:57:25.150Z,71.90
2017-11-08T04:58:30.617Z,78.53
2017-11-08T04:59:36.100Z,70.62
2017-11-08T05:00:41.622Z,79.30
2017-11-08T05:01:47.030Z,69.93
2017-11-08T05:02:54.663Z,65.40
2017-11-08T05:04:00.393Z,61.72
2017-11-08T05:05:05.897Z,68.90
2017-11-08T05:06:11.319Z,70.10
2017-11-08T05:07:16.763Z,73.57
2017-11-08T05:08:22.326Z,74.35
2017-11-08T05:09:27.828Z,68.20
2017-11-08T05:10:34.465Z,70.55
2017-11-08T05:11:39.933Z,70.25
2017-11-08T05:12:45.443Z,73.70
2017-11-08T05:13:50.859Z,73.85
2017-11-08T05:14:56.258Z,75.47
2017-11-08T05:16:02.128Z,69.93
2017-11-08T05:17:07.566Z,70.05
2017-11-08T05:18:13.242Z,70.57
2017-11-08T05:19:18.739Z,69.72
2017-11-08T05:20:24.172Z,66.12
2017-11-08T05:21:29.660Z,68.65
2017-11-08T05:22:35.575Z,65.68
2017-11-08T05:23:41.163Z,61.40
2017-11-08T05:24:46.626Z,70.73
2017-11-08T05:25:52.077Z,68.97
2017-11-08T05:26:57.529Z,68.35
2017-11-08T05:28:03.421Z,66.45
2017-11-08T05:29:09.561Z,65.20
2017-11-08T05:30:14.989Z,64.72
2017-11-08T05:31:20.412Z,58.70
2017-11-08T05:32:25.814Z,63.00
2017-11-08T05:33:31.219Z,60.30
2017-11-08T05:34:36.669Z,57.80
2017-11-08T05:35:42.141Z,62.90
2017-11-08T05:36:47.623Z,60.03
2017-11-08T05:37:53.165Z,64.18
2017-11-08T05:38:59.164Z,60.08
2017-11-08T05:40:04.766Z,58.25
2017-11-08T05:41:10.169Z,60.42
2017-11-08T05:42:15.595Z,58.00
2017-11-08T05:43:21.037Z,60.35
2017-11-08T05:44:26.509Z,57.78
2017-11-08T05:45:32.339Z,59.53
2017-11-08T05:46:37.777Z,57.47
2017-11-08T05:47:43.234Z,61.15
2017-11-08T05:48:48.685Z,57.15
2017-11-08T05:49:54.216Z,59.60
2017-11-08T05:50:59.985Z,52.15
2017-11-08T05:52:05.371Z,58.13
2017-11-08T05:53:10.832Z,60.53
2017-11-08T05:54:16.294Z,61.85
2017-11-08T05:55:21.736Z,60.13
2017-11-08T05:56:27.857Z,58.65
2017-11-08T05:57:33.358Z,64.53
2017-11-08T05:58:38.820Z,56.90
2017-11-08T05:59:44.304Z,53.95
2017-11-08T06:00:49.954Z,60.95
2017-11-08T06:01:55.357Z,58.37
2017-11-08T06:03:00.851Z,61.50
2017-11-08T06:04:07.177Z,61.60
2017-11-08T06:05:12.873Z,60.20
2017-11-08T06:06:18.803Z,62.62
2017-11-08T06:07:24.701Z,58.10
2017-11-08T06:08:33.149Z,56.53
2017-11-08T06:09:41.451Z,208.55
2017-11-08T06:10:53.129Z,77.70
2017-11-08T06:12:02.682Z,80.55
2017-11-08T06:13:08.160Z,69.28
2017-11-08T06:14:14.097Z,69.40
2017-11-08T06:15:19.629Z,64.00
2017-11-08T06:16:25.134Z,62.50
2017-11-08T06:17:30.641Z,60.85
2017-11-08T06:18:36.044Z,62.10
2017-11-08T06:19:41.553Z,66.05
2017-11-08T06:20:47.488Z,62.08
2017-11-08T06:21:53.005Z,60.05
2017-11-08T06:22:58.587Z,68.78
2017-11-08T06:24:04.365Z,59.22
2017-11-08T06:25:09.815Z,60.83
2017-11-08T06:26:15.440Z,66.60
2017-11-08T06:27:20.879Z,66.82
2017-11-08T06:28:26.724Z,60.15
2017-11-08T06:29:32.208Z,60.63
2017-11-08T06:30:37.692Z,64.18
2017-11-08T06:31:43.526Z,66.80
2017-11-08T06:32:49.286Z,61.00
2017-11-08T06:33:55.104Z,58.65
2017-11-08T06:35:00.804Z,64.30
2017-11-08T06:36:06.735Z,60.70
2017-11-08T06:37:12.699Z,58.65
2017-11-08T06:38:18.250Z,63.10
2017-11-08T06:39:24.153Z,63.63
2017-11-08T06:40:29.686Z,61.65
2017-11-08T06:41:35.245Z,63.97
2017-11-08T06:42:41.338Z,59.90
2017-11-08T06:43:46.849Z,57.90
2017-11-08T06:44:52.350Z,59.92
2017-11-08T06:45:58.302Z,58.65
2017-11-08T06:47:04.248Z,60.05
2017-11-08T06:48:09.870Z,59.28
2017-11-08T06:49:15.355Z,69.90
2017-11-08T06:50:20.844Z,56.33
2017-11-08T06:51:26.326Z,66.18
2017-11-08T06:52:31.865Z,63.60
2017-11-08T06:53:38.126Z,60.53
2017-11-08T06:54:43.647Z,60.70
2017-11-08T07:01:19.587Z,67.30
2017-11-08T07:02:25.049Z,67.85
2017-11-08T07:03:30.482Z,66.15
2017-11-08T07:04:35.961Z,68.87
2017-11-08T07:05:41.763Z,67.10
2017-11-08T07:06:47.243Z,66.70
2017-11-08T07:07:52.721Z,68.07
2017-11-08T07:08:58.161Z,65.55
2017-11-08T07:10:03.647Z,72.32
2017-11-08T07:11:09.445Z,65.93
2017-11-08T07:12:14.875Z,75.78
2017-11-08T07:13:20.358Z,68.62
2017-11-08T07:14:25.782Z,76.77
2017-11-08T07:15:31.285Z,68.82
2017-11-08T07:16:37.073Z,71.75
2017-11-08T07:17:42.547Z,69.97
2017-11-08T07:18:48.158Z,72.65
2017-11-08T07:19:53.807Z,73.85
2017-11-08T07:20:59.268Z,76.90
2017-11-08T07:22:07.764Z,66.40
2017-11-08T07:23:13.420Z,66.40
2017-11-08T07:24:18.894Z,68.23
2017-11-08T07:25:24.894Z,71.90
2017-11-08T07:26:30.416Z,69.65
2017-11-08T07:27:35.854Z,72.43
2017-11-08T07:28:41.561Z,63.80
2017-11-08T07:29:47.053Z,66.25
2017-11-08T07:30:52.622Z,68.30
2017-11-08T07:31:58.769Z,73.57
2017-11-08T07:33:04.180Z,64.12
2017-11-08T07:34:10.241Z,67.72
2017-11-08T07:35:15.695Z,75.12
2017-11-08T07:36:21.805Z,66.85
2017-11-08T07:37:27.741Z,66.68
2017-11-08T07:38:33.166Z,69.00
2017-11-08T07:39:39.288Z,70.28
2017-11-08T07:40:44.834Z,70.80
2017-11-08T07:41:50.273Z,73.30
2017-11-08T07:42:55.796Z,68.85
2017-11-08T07:44:01.224Z,73.50
2017-11-08T07:45:07.240Z,67.78
2017-11-08T07:46:12.842Z,74.28
2017-11-08T07:47:18.285Z,75.07
2017-11-08T07:48:23.792Z,67.97
2017-11-08T07:49:29.234Z,71.10
2017-11-08T07:50:35.199Z,71.22
2017-11-08T07:51:40.863Z,76.30
2017-11-08T07:52:46.282Z,77.05
2017-11-08T07:53:51.872Z,80.70
2017-11-08T07:55:02.247Z,80.10
2017-11-08T07:56:07.726Z,69.72
2017-11-08T07:57:13.546Z,70.93
2017-11-08T07:58:19.004Z,77.15
2017-11-08T07:59:26.486Z,73.68
2017-11-08T08:00:31.986Z,75.97
2017-11-08T08:01:37.863Z,74.77
2017-11-08T08:02:43.350Z,69.80
2017-11-08T08:03:49.115Z,71.30
2017-11-08T08:04:54.602Z,69.65
2017-11-08T08:06:00.030Z,80.80
2017-11-08T08:07:05.826Z,78.43
2017-11-08T08:08:11.313Z,75.22
2017-11-08T08:09:16.808Z,82.72
2017-11-08T08:10:22.272Z,77.70
2017-11-08T08:11:27.811Z,79.20
2017-11-08T08:12:38.725Z,83.47
2017-11-08T08:13:44.265Z,80.68
2017-11-08T08:14:49.713Z,80.53
2017-11-08T08:15:55.192Z,73.45
2017-11-08T08:17:00.660Z,80.38
2017-11-08T08:18:06.484Z,81.53
2017-11-08T08:19:11.957Z,76.15
2017-11-08T08:20:17.442Z,82.10
2017-11-08T08:21:24.315Z,82.25
2017-11-08T08:22:29.856Z,74.57
2017-11-08T08:23:35.412Z,85.53
2017-11-08T08:24:40.983Z,80.20
2017-11-08T08:25:48.584Z,80.45
2017-11-08T08:26:54.147Z,82.97
2017-11-08T08:27:59.724Z,79.30
2017-11-08T08:29:05.920Z,85.12
2017-11-08T08:30:11.432Z,78.85
2017-11-08T08:31:16.875Z,78.80
2017-11-08T08:32:22.371Z,83.90
2017-11-08T08:33:27.839Z,79.90
2017-11-08T08:34:34.028Z,77.22
2017-11-08T08:35:39.474Z,78.90
2017-11-08T08:36:44.945Z,83.17
2017-11-08T08:37:50.831Z,80.82
2017-11-08T08:38:56.281Z,75.87
2017-11-08T08:40:01.761Z,85.00
2017-11-08T08:41:07.265Z,84.47
2017-11-08T08:42:12.936Z,86.30
2017-11-08T08:43:18.432Z,80.25
2017-11-08T08:44:24.454Z,74.87
2017-11-08T08:45:29.980Z,87.75
2017-11-08T08:46:35.476Z,81.15
2017-11-08T08:47:40.930Z,79.80
2017-11-08T08:48:46.452Z,81.55
2017-11-08T08:49:51.931Z,80.12
2017-11-08T08:50:57.721Z,81.57
2017-11-08T08:52:03.505Z,82.47
2017-11-08T08:53:09.009Z,84.50
2017-11-08T08:54:14.601Z,78.43
2017-11-08T08:55:20.010Z,76.93
2017-11-08T08:56:25.847Z,78.78
2017-11-08T08:57:31.257Z,77.18
2017-11-08T08:58:36.718Z,72.30
2017-11-08T08:59:42.161Z,75.47
2017-11-08T09:00:47.882Z,71.95
2017-11-08T09:01:55.621Z,71.72
2017-11-08T09:03:01.989Z,79.37
2017-11-08T09:04:07.574Z,73.87
2017-11-08T09:05:13.116Z,73.62
2017-11-08T09:06:18.559Z,78.28
2017-11-08T09:07:24.138Z,78.55
2017-11-08T09:08:29.661Z,83.22
2017-11-08T09:09:36.206Z,78.45
2017-11-08T09:10:43.594Z,82.10
2017-11-08T09:11:51.078Z,72.82
2017-11-08T09:12:58.466Z,81.25
2017-11-08T09:14:04.030Z,84.07
2017-11-08T09:15:09.618Z,80.60
2017-11-08T09:16:15.164Z,79.32
2017-11-08T09:17:20.698Z,84.10
2017-11-08T09:18:26.673Z,92.30
2017-11-08T09:19:33.148Z,79.65
2017-11-08T09:20:38.765Z,102.87
2017-11-08T09:21:44.324Z,81.05
2017-11-08T09:22:49.881Z,81.12
2017-11-08T09:24:00.365Z,90.62
2017-11-08T09:25:10.830Z,90.43
2017-11-08T09:26:16.485Z,88.97
2017-11-08T09:27:21.988Z,86.97
2017-11-08T09:28:27.576Z,80.85
2017-11-08T09:29:35.473Z,90.68
2017-11-08T09:30:41.120Z,83.25
2017-11-08T09:31:46.617Z,84.40
2017-11-08T09:32:52.297Z,83.20
2017-11-08T09:33:57.897Z,76.23
2017-11-08T09:35:08.689Z,77.65
2017-11-08T09:36:15.042Z,79.40
2017-11-08T09:37:27.583Z,71.78
2017-11-08T09:38:33.947Z,68.97
2017-11-08T09:39:39.724Z,74.60
2017-11-08T09:40:45.594Z,68.00
2017-11-08T09:41:51.176Z,71.28
2017-11-08T09:42:58.904Z,71.80
2017-11-08T09:44:04.505Z,69.47
2017-11-08T09:45:12.310Z,74.53
2017-11-08T09:46:17.859Z,72.22
2017-11-08T09:47:23.344Z,70.37
2017-11-08T09:48:28.842Z,65.62
2017-11-08T09:49:34.408Z,71.25
2017-11-08T09:50:39.901Z,66.43
2017-11-08T09:51:46.283Z,69.80
2017-11-08T09:52:51.787Z,70.60
2017-11-08T09:53:57.294Z,65.53
2017-11-08T09:55:02.847Z,73.97
2017-11-08T09:56:08.317Z,66.93
2017-11-08T09:57:14.171Z,74.50
2017-11-08T09:58:19.752Z,75.43
2017-11-08T09:59:25.340Z,78.72
2017-11-08T10:00:30.798Z,69.28
2017-11-08T10:01:42.149Z,64.00
2017-11-08T10:02:47.715Z,76.20
2017-11-08T10:03:53.177Z,64.32
2017-11-08T10:05:00.471Z,67.95
2017-11-08T10:06:05.974Z,71.12
2017-11-08T10:07:11.434Z,65.13
2017-11-08T10:08:16.990Z,71.43
2017-11-08T10:09:56.552Z,64.68
2017-11-08T10:11:04.793Z,65.75
2017-11-08T10:12:13.245Z,72.47
2017-11-08T10:13:19.590Z,67.80
2017-11-08T10:14:25.157Z,72.78
2017-11-08T10:15:30.704Z,66.25
2017-11-08T10:16:53.949Z,65.05
2017-11-08T10:17:59.508Z,61.67
2017-11-08T10:19:04.969Z,66.85
2017-11-08T10:20:10.916Z,68.22
2017-11-08T10:21:16.392Z,64.45
2017-11-08T10:22:22.819Z,70.75
2017-11-08T10:23:28.470Z,68.62
2017-11-08T10:24:34.049Z,71.95
2017-11-08T10:25:39.526Z,75.68
2017-11-08T10:26:45.168Z,77.25
2017-11-08T10:27:50.743Z,67.03
2017-11-08T10:28:56.302Z,68.85
2017-11-08T10:30:01.945Z,71.90
2017-11-08T10:31:07.859Z,71.70
2017-11-08T10:32:13.514Z,65.22
2017-11-08T10:33:19.100Z,61.75
2017-11-08T10:34:24.561Z,65.40
2017-11-08T10:35:30.069Z,63.90
2017-11-08T10:36:35.565Z,65.05
2017-11-08T10:37:41.002Z,70.68
2017-11-08T10:38:46.569Z,68.07
2017-11-08T10:39:52.030Z,75.40
2017-11-08T10:40:57.536Z,66.78
2017-11-08T10:42:03.113Z,66.72
2017-11-08T10:43:08.650Z,65.20
2017-11-08T10:44:14.141Z,66.18
2017-11-08T10:45:19.617Z,70.43
2017-11-08T10:46:25.460Z,68.87
2017-11-08T10:47:30.992Z,69.12
2017-11-08T10:48:38.105Z,77.18
2017-11-08T10:49:48.877Z,67.93
2017-11-08T10:50:54.319Z,75.80
2017-11-08T10:51:59.997Z,71.03
2017-11-08T10:53:05.512Z,75.03
2017-11-08T10:54:11.194Z,71.22
2017-11-08T10:55:18.077Z,73.18
2017-11-08T10:56:23.619Z,80.03
2017-11-08T10:57:29.417Z,71.57
2017-11-08T10:58:35.018Z,73.03
2017-11-08T10:59:46.165Z,80.65
2017-11-08T11:00:52.057Z,75.25
2017-11-08T11:01:57.561Z,76.20
2017-11-08T11:03:07.916Z,76.40
2017-11-08T11:04:13.432Z,82.53
2017-11-08T11:05:19.055Z,81.50
2017-11-08T11:06:25.431Z,83.87
2017-11-08T11:07:30.934Z,89.97
2017-11-08T11:08:36.534Z,86.15
2017-11-08T11:09:42.052Z,82.30
2017-11-08T11:10:48.223Z,84.87
2017-11-08T11:11:53.878Z,89.78
2017-11-08T11:13:04.334Z,88.87
2017-11-08T11:14:11.858Z,81.80
2017-11-08T11:15:17.377Z,92.20
2017-11-08T11:16:23.666Z,83.22
2017-11-08T11:17:29.202Z,89.30
2017-11-08T11:18:34.796Z,85.53
2017-11-08T11:19:40.275Z,90.82
2017-11-08T11:20:48.897Z,93.65
2017-11-08T11:22:00.024Z,94.18
2017-11-08T11:23:05.548Z,93.53
2017-11-08T11:24:13.248Z,98.20
2017-11-08T11:25:18.752Z,95.97
2017-11-08T11:26:30.408Z,94.95
2017-11-08T11:27:36.014Z,93.37
2017-11-08T11:28:41.516Z,96.07
2017-11-08T11:29:47.085Z,101.78
2017-11-08T11:30:52.729Z,96.50
2017-11-08T11:31:58.247Z,99.10
2017-11-08T11:33:07.418Z,100.83
2017-11-08T11:34:13.020Z,97.83
2017-11-08T11:35:18.534Z,100.53
2017-11-08T11:36:24.151Z,109.47
2017-11-08T11:37:31.458Z,95.10
2017-11-08T11:38:37.012Z,109.87
2017-11-08T11:39:42.506Z,100.47
2017-11-08T11:40:48.020Z,106.72
2017-11-08T11:41:53.779Z,110.50
2017-11-08T11:42:59.451Z,106.15
2017-11-08T11:44:05.544Z,105.20
2017-11-08T11:45:11.126Z,106.10
2017-11-08T11:46:16.909Z,116.10
2017-11-08T11:47:22.586Z,103.60
2017-11-08T11:48:32.400Z,123.47
2017-11-08T11:49:37.994Z,104.53
2017-11-08T11:50:45.044Z,104.12
2017-11-08T11:51:50.517Z,104.07
2017-11-08T11:52:56.015Z,110.28
2017-11-08T11:54:01.597Z,114.47
2017-11-08T11:55:07.566Z,111.97
2017-11-08T11:56:13.062Z,116.03
2017-11-08T11:57:18.569Z,112.82
2017-11-08T11:58:24.099Z,118.75
2017-11-08T11:59:29.697Z,118.40
2017-11-08T12:00:35.283Z,112.12
2017-11-08T12:01:40.842Z,115.67
2017-11-08T12:02:46.474Z,117.53
2017-11-08T12:03:52.050Z,105.13
2017-11-08T12:04:57.995Z,116.28
2017-11-08T12:06:03.649Z,116.90
2017-11-08T12:07:09.180Z,114.55
2017-11-08T12:08:14.855Z,116.75
2017-11-08T12:09:21.368Z,116.88
2017-11-08T12:10:27.051Z,118.45
2017-11-08T12:11:36.889Z,111.10
2017-11-08T12:12:42.574Z,121.18
2017-11-08T12:13:51.026Z,122.37
2017-11-08T12:14:56.613Z,113.90
2017-11-08T12:16:02.383Z,122.20
2017-11-08T12:17:07.989Z,113.82
2017-11-08T12:18:13.578Z,113.63
2017-11-08T12:19:19.161Z,129.18
2017-11-08T12:20:24.717Z,112.27
2017-11-08T12:21:30.265Z,116.20
2017-11-08T12:22:36.066Z,114.40
2017-11-08T12:23:41.626Z,106.82
2017-11-08T12:24:47.328Z,111.72
2017-11-08T12:25:52.906Z,109.78
2017-11-08T12:27:03.697Z,106.97
2017-11-08T12:28:09.628Z,104.97
2017-11-08T12:29:15.202Z,104.85
2017-11-08T12:30:20.994Z,116.32
2017-11-08T12:31:27.088Z,119.47
2017-11-08T12:32:33.951Z,110.90
2017-11-08T12:33:40.880Z,112.15
2017-11-08T12:34:52.318Z,116.85
2017-11-08T12:35:59.376Z,118.60
2017-11-08T12:37:05.002Z,116.15
2017-11-08T12:38:10.572Z,112.22
2017-11-08T12:39:17.979Z,117.75
2017-11-08T12:40:23.839Z,120.80
2017-11-08T12:41:31.336Z,112.35
2017-11-08T12:42:37.620Z,115.85
2017-11-08T12:43:48.272Z,123.35
2017-11-08T12:44:59.824Z,112.28
2017-11-08T12:46:06.427Z,115.12
2017-11-08T12:47:12.860Z,114.72
2017-11-08T12:48:18.527Z,117.85
2017-11-08T12:49:26.079Z,122.53
2017-11-08T12:50:32.877Z,116.97
2017-11-08T12:51:39.648Z,114.72
2017-11-08T12:52:46.127Z,118.68
2017-11-08T12:53:52.026Z,111.30
2017-11-08T12:54:57.605Z,116.93
2017-11-08T12:56:03.592Z,121.35
2017-11-08T12:57:09.201Z,116.47
2017-11-08T12:58:14.889Z,112.57
2017-11-08T12:59:20.454Z,119.78
2017-11-08T13:00:26.487Z,118.28
2017-11-08T13:01:33.597Z,120.22
2017-11-08T13:03:02.989Z,116.05
2017-11-08T13:04:08.566Z,122.18
2017-11-08T13:05:14.275Z,114.43
2017-11-08T13:06:19.946Z,115.65
2017-11-08T13:07:25.690Z,112.05
2017-11-08T13:08:35.026Z,126.63
2017-11-08T13:09:40.615Z,120.13
2017-11-08T13:10:51.327Z,116.85
2017-11-08T13:11:57.237Z,121.37
2017-11-08T13:13:03.953Z,128.65
2017-11-08T13:14:10.237Z,130.55
2017-11-08T13:15:15.896Z,121.75
2017-11-08T13:16:22.468Z,122.07
2017-11-08T13:17:28.389Z,121.65
2017-11-08T13:18:34.091Z,114.22
2017-11-08T13:19:41.588Z,121.80
2017-11-08T13:20:48.439Z,121.72
2017-11-08T13:21:54.492Z,118.80
2017-11-08T13:23:00.589Z,117.35
2017-11-08T13:24:07.150Z,126.35
2017-11-08T13:25:13.099Z,121.80
2017-11-08T13:26:19.995Z,119.40
2017-11-08T13:27:26.172Z,118.37
2017-11-08T13:28:32.036Z,116.18
2017-11-08T13:29:37.931Z,113.43
2017-11-08T13:30:43.556Z,105.40
2017-11-08T13:31:49.174Z,109.55
2017-11-08T13:32:54.745Z,103.20
2017-11-08T13:34:00.349Z,106.00
2017-11-08T13:35:05.940Z,103.03
2017-11-08T13:36:11.740Z,104.68
2017-11-08T13:37:17.663Z,100.62
2017-11-08T13:38:23.239Z,95.72
2017-11-08T13:39:28.850Z,92.75
2017-11-08T13:40:34.407Z,84.32
2017-11-08T13:41:40.021Z,80.50
2017-11-08T13:42:45.685Z,89.50
2017-11-08T13:43:51.266Z,89.13
2017-11-08T13:44:57.013Z,81.68
2017-11-08T13:46:02.694Z,88.25
2017-11-08T13:47:08.504Z,79.20
2017-11-08T13:48:14.446Z,82.50
2017-11-08T13:49:20.056Z,84.13
2017-11-08T13:50:25.743Z,79.75
2017-11-08T13:51:31.493Z,79.65
2017-11-08T13:52:37.346Z,86.15
2017-11-08T13:53:42.927Z,83.53
2017-11-08T13:54:48.500Z,80.97
2017-11-08T13:55:54.143Z,88.40
2017-11-08T13:56:59.902Z,78.68
2017-11-08T13:58:05.648Z,82.75
2017-11-08T13:59:11.733Z,84.30
2017-11-08T14:00:22.361Z,81.65
2017-11-08T14:01:28.125Z,77.15
2017-11-08T14:02:33.864Z,87.30
2017-11-08T14:03:39.626Z,85.80
2017-11-08T14:04:52.025Z,83.30
2017-11-08T14:05:57.502Z,83.68
2017-11-08T14:07:03.324Z,82.15
2017-11-08T14:08:08.879Z,84.32
2017-11-08T14:09:14.554Z,91.13
2017-11-08T14:10:20.183Z,85.60
2017-11-08T14:11:25.814Z,87.63
2017-11-08T14:12:31.432Z,83.60
2017-11-08T14:13:36.980Z,84.90